Time;durP1;ratioP1;P1;durP2;ratioP2;P2;SDS_P1;SDS_P2;PMS_P1;PMS_P2;Temp;Humidity;BMP_temperature;BMP_pressure;BME280_temperature;BME280_humidity;BME280_pressure;Samples;Min_cycle;Max_cycle;Signal;HPM_P1;HPM_P2
2022/02/20 00:00:33;;;;;;;6.57;1.95;;;4.70;99.90;;;4.81;70.89;100330.44;4958678;29;20216;-81
2022/02/20 00:03:04;;;;;;;5.28;1.70;;;4.70;99.90;;;4.69;71.02;100321.16;4963042;28;20232;-81
2022/02/20 00:05:33;;;;;;;6.38;1.90;;;4.60;99.90;;;4.65;71.11;100313.63;4965018;29;20699;-82
2022/02/20 00:08:02;;;;;;;4.97;2.20;;;4.60;99.90;;;4.67;70.92;100307.09;4965160;28;20211;-81
2022/02/20 00:10:30;;;;;;;4.82;1.83;;;4.60;99.90;;;4.51;71.40;100291.13;4970568;29;20288;-81
2022/02/20 00:13:00;;;;;;;6.53;3.40;;;4.50;99.90;;;4.62;71.64;100293.41;4972900;28;20261;-81
2022/02/20 00:15:29;;;;;;;4.85;1.90;;;4.50;99.90;;;4.54;71.60;100288.09;4971707;29;20200;-82
2022/02/20 00:18:01;;;;;;;3.83;2.15;;;4.40;99.90;;;4.55;71.91;100287.06;4970274;29;20196;-79
2022/02/20 00:20:31;;;;;;;5.57;2.20;;;4.50;99.90;;;4.44;71.79;100279.47;4963713;29;20215;-82
2022/02/20 00:23:02;;;;;;;4.75;3.30;;;4.40;99.90;;;4.48;71.78;100280.78;4979012;28;20247;-81
2022/02/20 00:25:34;;;;;;;5.93;1.80;;;4.40;99.90;;;4.44;71.28;100270.59;4960809;29;20184;-82
2022/02/20 00:28:04;;;;;;;3.22;1.80;;;4.40;99.90;;;4.35;72.02;100272.50;4964270;29;20295;-82
2022/02/20 00:30:34;;;;;;;6.40;2.38;;;4.30;99.90;;;4.32;72.40;100265.63;4981593;28;20220;-81
2022/02/20 00:33:04;;;;;;;4.60;1.88;;;4.30;99.90;;;4.31;72.38;100258.59;4960591;29;20659;-80
2022/02/20 00:35:35;;;;;;;6.15;2.17;;;4.30;99.90;;;4.35;72.19;100253.75;4959783;29;20204;-81
2022/02/20 00:38:05;;;;;;;6.30;1.95;;;4.30;99.90;;;4.38;72.02;100251.53;4961300;29;20243;-82
2022/02/20 00:40:35;;;;;;;1.60;1.20;;;4.30;99.90;;;4.47;71.81;100246.94;4960249;29;20184;-82
2022/02/20 00:43:05;;;;;;;5.82;2.42;;;4.30;99.90;;;4.47;71.73;100246.94;4961566;29;20288;-81
2022/02/20 00:45:34;;;;;;;3.20;1.80;;;4.40;99.90;;;4.37;72.52;100241.81;4962073;28;20192;-82
2022/02/20 00:48:04;;;;;;;7.50;1.98;;;4.30;99.90;;;4.37;73.22;100232.94;4966057;28;20188;-82
2022/02/20 00:50:34;;;;;;;4.60;1.65;;;4.30;99.90;;;4.50;72.74;100235.88;4972771;29;20286;-81
2022/02/20 00:53:03;;;;;;;7.30;2.00;;;4.40;99.90;;;4.30;73.05;100223.97;4975669;29;20188;-82
2022/02/20 00:55:35;;;;;;;5.57;1.90;;;4.30;99.90;;;4.17;73.97;100223.72;4976507;28;20408;-81
2022/02/20 00:58:04;;;;;;;4.70;2.22;;;4.20;99.90;;;4.16;73.84;100219.38;4971281;29;20196;-82
2022/02/20 01:00:32;;;;;;;7.47;2.03;;;4.10;99.90;;;4.07;74.34;100213.22;4975364;28;20275;-81
2022/02/20 01:03:01;;;;;;;4.55;2.10;;;4.00;99.90;;;3.97;74.93;100201.09;4974598;29;20299;-82
2022/02/20 01:05:30;;;;;;;6.03;2.50;;;4.00;99.90;;;3.97;75.66;100207.25;4973025;29;20180;-82
2022/02/20 01:08:00;;;;;;;8.07;3.25;;;3.90;99.90;;;3.93;75.74;100198.75;4972894;28;20270;-81
2022/02/20 01:10:29;;;;;;;4.82;2.10;;;3.90;99.90;;;4.03;75.54;100197.69;4980860;28;20219;-81
2022/02/20 01:13:00;;;;;;;10.02;2.35;;;3.90;99.90;;;3.94;76.41;100195.06;4959356;29;20607;-82
2022/02/20 01:15:31;;;;;;;8.93;2.13;;;3.90;99.90;;;3.96;76.17;100194.06;4975705;28;20200;-81
2022/02/20 01:17:59;;;;;;;4.55;1.77;;;3.80;99.90;;;3.93;76.16;100190.72;4958452;29;20192;-82
2022/02/20 01:20:28;;;;;;;13.43;2.58;;;3.90;99.90;;;3.79;76.59;100172.75;4960046;28;20568;-81
2022/02/20 01:22:57;;;;;;;7.70;2.67;;;3.70;99.90;;;3.75;76.91;100171.44;4959166;29;20220;-80
2022/02/20 01:25:27;;;;;;;2.10;1.20;;;3.70;99.90;;;3.78;76.82;100162.19;4958791;29;20203;-81
2022/02/20 01:27:58;;;;;;;6.80;2.50;;;3.70;99.90;;;3.74;77.24;100163.56;4974016;28;20196;-81
2022/02/20 01:30:26;;;;;;;6.85;2.58;;;3.70;99.90;;;3.76;77.64;100157.03;4958576;29;20204;-82
2022/02/20 01:32:55;;;;;;;5.93;3.13;;;3.70;99.90;;;3.82;77.43;100156.34;4973494;28;20219;-81
2022/02/20 01:35:24;;;;;;;6.20;2.33;;;3.70;99.90;;;3.77;77.03;100145.34;4957433;29;20191;-81
2022/02/20 01:37:52;;;;;;;5.30;2.65;;;3.70;99.90;;;3.77;77.36;100137.31;4959230;28;20180;-81
2022/02/20 01:40:22;;;;;;;4.35;1.88;;;3.70;99.90;;;3.70;77.43;100133.66;4973570;28;20279;-80
2022/02/20 01:42:53;;;;;;;4.57;2.95;;;3.60;99.90;;;3.64;77.64;100131.69;4973679;28;20275;-81
2022/02/20 01:45:22;;;;;;;4.40;2.45;;;3.60;99.90;;;3.69;77.96;100134.66;4973556;28;20200;-82
2022/02/20 01:47:51;;;;;;;4.85;2.80;;;3.60;99.90;;;3.49;77.62;100123.56;4974993;28;20220;-82
2022/02/20 01:50:20;;;;;;;4.05;2.67;;;3.50;99.90;;;3.49;77.80;100117.38;4972804;28;20215;-81
2022/02/20 01:52:52;;;;;;;6.35;2.70;;;3.40;99.90;;;3.43;78.15;100113.59;4957005;29;20232;-80
2022/02/20 01:55:21;;;;;;;5.68;2.83;;;3.40;99.90;;;3.39;78.40;100106.06;4957821;29;20224;-81
2022/02/20 01:58:04;;;;;;;5.78;3.33;;;3.40;99.90;;;3.36;78.75;100093.06;4958093;29;20199;-79
2022/02/20 02:00:42;;;;;;;5.60;2.97;;;3.30;99.90;;;3.45;79.28;100092.84;4973737;28;20188;-80
2022/02/20 02:03:44;;;;;;;7.95;3.28;;;3.40;99.90;;;3.52;79.40;100098.31;4959549;28;20208;-81
2022/02/20 02:06:25;;;;;;;4.55;3.00;;;3.40;99.90;;;3.46;79.01;100085.66;4957261;29;20215;-79
2022/02/20 02:08:56;;;;;;;4.85;3.67;;;3.40;99.90;;;3.41;79.42;100080.81;4957850;29;20223;-81
2022/02/20 02:11:47;;;;;;;4.50;2.78;;;3.40;99.90;;;3.43;79.54;100076.16;4956687;29;20188;-82
2022/02/20 02:14:55;;;;;;;3.88;3.42;;;3.30;99.90;;;3.38;79.72;100064.31;4958797;29;20176;-80
2022/02/20 02:17:35;;;;;;;7.65;3.97;;;3.30;99.90;;;3.49;79.60;100062.06;4957156;28;20200;-80
2022/02/20 02:20:14;;;;;;;5.60;3.28;;;3.30;99.90;;;3.39;79.13;100055.25;4960611;29;20288;-81
2022/02/20 02:23:23;;;;;;;4.88;3.40;;;3.30;99.90;;;3.33;79.42;100039.94;4921128;29;20735;-79
2022/02/20 02:26:08;;;;;;;6.40;2.80;;;3.30;99.90;;;3.28;79.28;100039.63;4922086;29;20186;-82
2022/02/20 02:29:03;;;;;;;4.63;3.30;;;3.20;99.90;;;3.22;79.37;100037.66;4934865;28;20299;-79
2022/02/20 02:31:32;;;;;;;3.55;2.53;;;3.20;99.90;;;3.28;79.24;100029.78;4960679;29;20204;-82
2022/02/20 02:34:01;;;;;;;3.42;2.63;;;3.20;99.90;;;3.06;79.96;100022.53;4961326;29;20227;-81
2022/02/20 02:36:30;;;;;;;3.35;2.92;;;3.10;99.90;;;2.89;80.20;100019.13;4960538;29;20200;-81
2022/02/20 02:39:00;;;;;;;5.90;3.40;;;2.90;99.90;;;3.10;80.01;100026.50;4961280;29;20216;-79
2022/02/20 02:41:30;;;;;;;4.72;3.17;;;3.00;99.90;;;3.19;79.84;100013.94;4961868;29;20200;-80
2022/02/20 02:44:00;;;;;;;3.35;3.05;;;3.10;99.90;;;3.17;80.29;100010.59;4965693;28;20577;-80
2022/02/20 02:46:32;;;;;;;4.05;3.13;;;3.00;99.90;;;3.05;80.54;100008.31;4983975;28;20216;-80
2022/02/20 02:49:06;;;;;;;3.45;2.53;;;3.00;99.90;;;2.98;80.66;100007.38;4975955;29;20302;-80
2022/02/20 02:51:34;;;;;;;5.70;3.00;;;3.00;99.90;;;3.04;80.73;100001.34;4976453;28;20204;-78
2022/02/20 02:54:11;;;;;;;5.32;3.63;;;2.90;99.90;;;3.18;80.15;99997.06;4975258;29;20192;-78
2022/02/20 02:56:43;;;;;;;3.40;3.10;;;3.00;99.90;;;3.20;80.19;99996.88;4989941;28;20222;-79
2022/02/20 02:59:13;;;;;;;8.00;4.78;;;3.10;99.90;;;3.14;80.59;99989.59;4971617;29;20219;-79
2022/02/20 03:01:44;;;;;;;8.27;3.00;;;3.10;99.90;;;3.15;80.97;99981.38;4967684;29;20199;-82
2022/02/20 03:04:13;;;;;;;3.00;2.70;;;3.10;99.90;;;3.30;80.75;99978.78;4964906;28;20215;-80
2022/02/20 03:06:43;;;;;;;3.80;3.00;;;3.10;99.90;;;3.31;79.82;99983.94;4968730;29;20705;-80
2022/02/20 03:09:14;;;;;;;2.92;2.63;;;3.20;99.90;;;3.08;80.51;99979.59;4993828;28;20212;-79
2022/02/20 03:11:43;;;;;;;7.32;3.00;;;3.10;99.90;;;3.36;80.35;99986.09;4976731;29;20212;-80
2022/02/20 03:14:22;;;;;;;2.80;2.60;;;3.20;99.90;;;3.40;79.83;99982.88;4977526;29;20195;-80
2022/02/20 03:16:50;;;;;;;4.80;3.35;;;3.30;99.90;;;3.37;80.52;99971.72;4971537;29;20200;-79
2022/02/20 03:19:19;;;;;;;5.40;3.28;;;3.30;99.90;;;3.27;80.33;99963.09;4962924;29;20211;-80
2022/02/20 03:21:48;;;;;;;3.58;3.28;;;3.20;99.90;;;3.21;80.26;99969.13;4963397;29;20254;-80
2022/02/20 03:24:22;;;;;;;2.92;2.45;;;3.10;99.90;;;3.29;79.99;99955.75;4962067;29;20212;-81
2022/02/20 03:26:52;;;;;;;3.25;2.90;;;3.20;99.90;;;3.29;80.21;99977.13;4964219;29;20196;-79
2022/02/20 03:29:27;;;;;;;2.90;2.60;;;3.20;99.90;;;3.25;80.68;99975.78;4962142;28;20211;-80
2022/02/20 03:31:56;;;;;;;3.03;2.60;;;3.20;99.90;;;3.44;80.27;99970.81;4979608;28;20200;-79
2022/02/20 03:34:25;;;;;;;5.28;2.97;;;3.30;99.90;;;3.25;79.84;99978.47;4993063;28;20195;-78
2022/02/20 03:36:58;;;;;;;4.70;4.22;;;3.20;99.90;;;3.14;80.32;99974.38;4975528;29;20192;-80
2022/02/20 03:39:38;;;;;;;3.67;3.15;;;3.10;99.90;;;3.12;80.73;99975.56;4989364;28;20284;-78
2022/02/20 03:42:10;;;;;;;3.33;2.85;;;3.10;99.90;;;3.22;80.58;99979.66;4973730;29;20287;-79
2022/02/20 03:45:05;;;;;;;6.50;3.83;;;3.10;99.90;;;3.32;80.78;99980.28;4989012;28;20222;-79
2022/02/20 03:47:37;;;;;;;5.03;2.40;;;3.20;99.90;;;3.19;80.34;99973.84;4973551;29;20172;-78
2022/02/20 03:50:08;;;;;;;5.53;4.32;;;3.20;99.90;;;3.19;80.71;99969.34;4971110;29;20224;-79
2022/02/20 03:52:43;;;;;;;4.25;3.90;;;3.10;99.90;;;3.24;80.50;99974.16;4968369;29;20192;-80
2022/02/20 03:55:18;;;;;;;4.47;3.70;;;3.10;99.90;;;3.35;80.36;99971.03;4965990;29;20190;-80
2022/02/20 03:57:50;;;;;;;4.25;3.60;;;3.20;99.90;;;3.33;80.27;99965.06;4961104;29;20191;-81
2022/02/20 04:00:38;;;;;;;8.30;4.18;;;3.20;99.90;;;3.36;80.18;99964.69;4954175;28;20196;-79
2022/02/20 04:03:21;;;;;;;5.90;5.40;;;3.30;99.90;;;3.45;80.26;99967.13;4961728;29;20188;-79
2022/02/20 04:05:53;;;;;;;4.15;3.85;;;3.40;99.90;;;3.41;80.20;99973.84;4974798;28;20215;-78
2022/02/20 04:08:24;;;;;;;5.22;4.28;;;3.30;99.90;;;3.36;80.21;99967.38;4958910;29;20188;-78
2022/02/20 04:11:02;;;;;;;6.03;4.35;;;3.30;99.90;;;3.34;80.89;99966.72;4958433;29;20200;-80
2022/02/20 04:13:35;;;;;;;3.25;2.92;;;3.30;99.90;;;3.43;80.57;99973.69;4974921;28;20570;-80
2022/02/20 04:16:05;;;;;;;6.38;3.60;;;3.30;99.90;;;3.40;80.93;99974.03;4958959;29;20196;-81
2022/02/20 04:18:38;;;;;;;3.50;3.05;;;3.30;99.90;;;3.34;80.86;99964.88;4976522;28;20220;-79
2022/02/20 04:21:16;;;;;;;4.60;2.88;;;3.30;99.90;;;3.31;81.19;99980.44;4961943;28;20546;-79
2022/02/20 04:23:44;;;;;;;3.88;2.83;;;3.30;99.90;;;3.48;81.17;99965.97;4960171;29;20222;-79
2022/02/20 04:26:17;;;;;;;4.65;2.53;;;3.40;99.90;;;3.57;80.55;99980.94;4959388;29;20236;-79
2022/02/20 04:28:47;;;;;;;2.83;2.03;;;3.40;99.90;;;3.41;80.89;99983.72;4976002;28;20243;-79
2022/02/20 04:31:17;;;;;;;2.85;2.65;;;3.40;99.90;;;3.41;81.38;99986.38;4960537;29;20373;-78
2022/02/20 04:33:50;;;;;;;7.95;3.53;;;3.40;99.90;;;3.51;81.33;99981.63;4959119;29;20195;-79
2022/02/20 04:36:19;;;;;;;3.25;2.30;;;3.40;99.90;;;3.50;81.12;99990.66;4961072;29;20226;-79
2022/02/20 04:38:54;;;;;;;3.28;2.75;;;3.40;99.90;;;3.50;80.79;100001.38;4977719;28;20222;-78
2022/02/20 04:41:26;;;;;;;3.10;2.00;;;3.40;99.90;;;3.46;80.79;100006.25;4958562;28;20656;-80
2022/02/20 04:43:57;;;;;;;7.78;3.60;;;3.40;99.90;;;3.49;81.37;100000.53;4960520;29;20185;-78
2022/02/20 04:46:25;;;;;;;3.17;2.45;;;3.40;99.90;;;3.44;81.09;100002.06;4960430;29;20219;-79
2022/02/20 04:48:54;;;;;;;3.83;1.80;;;3.40;99.90;;;3.50;81.07;100004.88;4975466;28;20679;-80
2022/02/20 04:51:41;;;;;;;2.92;2.72;;;3.40;99.90;;;3.57;81.12;100010.34;4960572;29;20215;-80
2022/02/20 04:54:16;;;;;;;5.20;2.10;;;3.50;99.90;;;3.54;81.20;100008.00;4958740;29;20295;-80
2022/02/20 04:56:47;;;;;;;3.08;2.40;;;3.50;99.90;;;3.50;80.65;100012.91;4958701;29;20203;-81
2022/02/20 04:59:18;;;;;;;2.40;2.20;;;3.40;99.90;;;3.53;80.80;100014.41;4959330;29;20212;-79
2022/02/20 05:01:48;;;;;;;3.97;2.83;;;3.50;99.90;;;3.56;81.02;100008.69;4958569;29;20188;-80
2022/02/20 05:04:27;;;;;;;3.20;2.72;;;3.50;99.90;;;3.52;80.97;100011.91;4956956;29;20188;-80
2022/02/20 05:06:57;;;;;;;2.83;2.33;;;3.50;99.90;;;3.57;81.31;100020.22;4958122;29;20267;-79
2022/02/20 05:09:31;;;;;;;2.75;2.28;;;3.40;99.90;;;3.60;81.07;100011.81;4957586;29;20219;-80
2022/02/20 05:12:06;;;;;;;6.28;2.60;;;3.50;99.90;;;3.57;80.84;100007.69;4957091;29;20278;-80
2022/02/20 05:14:35;;;;;;;4.05;2.50;;;3.50;99.90;;;3.56;80.70;100011.34;4957257;29;20184;-79
2022/02/20 05:17:19;;;;;;;2.88;2.58;;;3.50;99.90;;;3.57;81.18;100015.69;4972838;28;20192;-79
2022/02/20 05:19:52;;;;;;;2.17;1.90;;;3.50;99.90;;;3.56;80.56;100024.72;4958525;29;20666;-80
2022/02/20 05:22:20;;;;;;;2.25;1.92;;;3.50;99.90;;;3.56;80.61;100031.91;4972657;28;20260;-79
2022/02/20 05:24:56;;;;;;;3.15;2.65;;;3.50;99.90;;;3.61;80.64;100029.53;4972795;28;20250;-79
2022/02/20 05:27:30;;;;;;;2.35;2.25;;;3.50;99.90;;;3.55;80.73;100031.09;4960580;29;20200;-79
2022/02/20 05:29:59;;;;;;;4.00;3.10;;;3.50;99.90;;;3.64;81.12;100024.66;4961807;29;20216;-79
2022/02/20 05:32:32;;;;;;;3.53;2.97;;;3.60;99.90;;;3.59;80.70;100032.38;4959797;29;20215;-79
2022/02/20 05:35:33;;;;;;;3.72;2.88;;;3.50;99.90;;;3.68;80.94;100025.16;4956467;28;20191;-80
2022/02/20 05:38:03;;;;;;;3.20;2.90;;;3.60;99.90;;;3.70;80.73;100040.00;4958938;29;20295;-80
2022/02/20 05:40:33;;;;;;;2.80;2.60;;;3.60;99.90;;;3.68;80.91;100044.69;4958790;29;20235;-78
2022/02/20 05:43:08;;;;;;;3.40;3.10;;;3.60;99.90;;;3.65;80.76;100053.09;4959030;29;20287;-79
2022/02/20 05:45:38;;;;;;;4.10;3.35;;;3.60;99.90;;;3.68;80.83;100047.38;4958128;29;20212;-79
2022/02/20 05:48:23;;;;;;;2.72;2.53;;;3.60;99.90;;;3.70;80.54;100056.06;4958914;29;20196;-80
2022/02/20 05:51:09;;;;;;;2.72;2.22;;;3.60;99.90;;;3.63;80.53;100059.66;4959059;29;20215;-79
2022/02/20 05:53:43;;;;;;;6.07;3.38;;;3.60;99.90;;;3.64;80.66;100066.63;4977452;28;20190;-80
2022/02/20 05:56:12;;;;;;;3.38;3.08;;;3.50;99.90;;;3.65;80.71;100074.50;4962960;29;20206;-79
2022/02/20 05:58:58;;;;;;;4.63;3.60;;;3.60;99.90;;;3.69;80.62;100081.16;4962214;29;20227;-81
2022/02/20 06:01:29;;;;;;;3.60;3.10;;;3.60;99.90;;;3.65;80.63;100085.19;4963096;29;20192;-79
2022/02/20 06:04:01;;;;;;;2.38;2.15;;;3.60;99.90;;;3.65;80.57;100087.03;4982525;28;20259;-80
2022/02/20 06:06:59;;;;;;;3.72;3.42;;;3.60;99.90;;;3.60;80.48;100092.91;4962727;29;20227;-79
2022/02/20 06:09:46;;;;;;;4.03;3.60;;;3.60;99.90;;;3.65;80.68;100095.06;4964816;29;20255;-80
2022/02/20 06:12:23;;;;;;;3.65;3.30;;;3.60;99.90;;;3.71;80.90;100111.25;4977521;28;20192;-78
2022/02/20 06:15:13;;;;;;;5.28;3.65;;;3.60;99.90;;;3.73;80.51;100101.19;4962550;29;20206;-78
2022/02/20 06:17:48;;;;;;;4.18;3.70;;;3.60;99.90;;;3.75;80.36;100112.56;4963792;29;20589;-81
2022/02/20 06:20:35;;;;;;;5.20;4.07;;;3.60;99.90;;;3.71;80.03;100111.25;4971296;29;20203;-79
2022/02/20 06:23:22;;;;;;;3.13;2.83;;;3.70;99.90;;;3.74;80.58;100110.88;4971328;28;20212;-79
2022/02/20 06:26:04;;;;;;;2.88;2.67;;;3.70;99.90;;;3.77;80.28;100110.56;4961081;29;20597;-78
2022/02/20 06:28:33;;;;;;;3.75;3.45;;;3.70;99.90;;;3.72;80.24;100115.59;4962720;29;20317;-78
2022/02/20 06:31:04;;;;;;;4.18;3.78;;;3.70;99.90;;;3.80;80.38;100120.06;4962354;29;20200;-78
2022/02/20 06:33:38;;;;;;;4.30;3.53;;;3.70;99.90;;;3.72;80.16;100128.97;4967236;29;20204;-80
2022/02/20 06:36:10;;;;;;;4.88;4.32;;;3.70;99.90;;;3.77;80.00;100140.00;4980320;28;20284;-78
2022/02/20 06:38:45;;;;;;;3.33;2.85;;;3.70;99.90;;;3.74;80.37;100148.34;4963790;29;20222;-80
2022/02/20 06:41:14;;;;;;;3.75;3.35;;;3.70;99.90;;;3.81;80.50;100154.69;4963648;29;20243;-80
2022/02/20 06:43:53;;;;;;;3.80;3.50;;;3.70;99.90;;;3.76;79.97;100151.69;4963421;29;20589;-80
2022/02/20 06:46:43;;;;;;;5.80;3.88;;;3.70;99.90;;;3.77;79.89;100158.72;4964593;29;20291;-80
2022/02/20 06:49:19;;;;;;;4.80;4.40;;;3.70;99.90;;;3.88;80.38;100174.34;4962248;29;20223;-80
2022/02/20 06:51:51;;;;;;;3.92;3.60;;;3.80;99.90;;;3.96;79.84;100167.31;4962271;29;20223;-80
2022/02/20 06:54:40;;;;;;;4.45;3.92;;;3.80;99.90;;;3.99;79.52;100177.66;4964960;28;20204;-80
2022/02/20 06:57:16;;;;;;;4.07;3.72;;;3.90;99.90;;;4.04;79.34;100183.31;4982109;28;20192;-79
2022/02/20 06:59:48;;;;;;;5.53;3.80;;;3.90;99.90;;;4.02;79.53;100188.00;4977595;28;20226;-79
2022/02/20 07:02:17;;;;;;;5.05;3.80;;;3.90;99.90;;;4.05;79.33;100201.03;4976317;28;20208;-78
2022/02/20 07:04:46;;;;;;;5.45;4.45;;;3.90;99.90;;;4.08;79.25;100200.66;4973325;28;20196;-79
2022/02/20 07:07:15;;;;;;;4.63;4.10;;;3.90;99.90;;;4.14;79.19;100202.66;4990450;28;20319;-79
2022/02/20 07:09:43;;;;;;;5.70;4.88;;;4.00;99.90;;;4.20;79.20;100212.66;4973585;28;20267;-80
2022/02/20 07:12:12;;;;;;;5.28;4.20;;;4.10;99.90;;;4.18;79.10;100214.66;4973143;29;20268;-79
2022/02/20 07:14:40;;;;;;;5.53;5.03;;;4.10;99.90;;;4.23;79.01;100217.66;4976767;28;20169;-80
2022/02/20 07:17:08;;;;;;;4.90;3.60;;;4.10;99.90;;;4.30;78.63;100226.66;4974131;28;20248;-80
2022/02/20 07:19:39;;;;;;;4.22;3.90;;;4.20;99.90;;;4.19;78.52;100235.09;4971953;29;20220;-78
2022/02/20 07:22:07;;;;;;;4.18;3.78;;;4.20;99.90;;;4.19;78.82;100240.44;4971084;28;20195;-78
2022/02/20 07:24:37;;;;;;;4.35;3.95;;;4.10;99.90;;;4.12;79.13;100236.78;4971107;29;20184;-80
2022/02/20 07:27:06;;;;;;;5.30;4.40;;;4.10;99.90;;;4.21;79.09;100241.91;4970220;29;20711;-80
2022/02/20 07:29:34;;;;;;;5.22;4.40;;;4.10;99.90;;;4.22;79.00;100246.28;4970192;29;20224;-79
2022/02/20 07:32:03;;;;;;;5.40;4.90;;;4.10;99.90;;;4.20;78.28;100244.78;4987694;28;20235;-78
2022/02/20 07:34:32;;;;;;;5.47;4.20;;;4.10;99.90;;;4.22;78.53;100240.91;4968857;28;20188;-79
2022/02/20 07:37:03;;;;;;;4.68;4.10;;;4.10;99.90;;;4.37;78.66;100249.03;4990644;28;20572;-82
2022/02/20 07:39:32;;;;;;;6.05;4.50;;;4.20;99.90;;;4.50;78.37;100253.81;4987959;28;20238;-82
2022/02/20 07:42:00;;;;;;;6.20;5.05;;;4.30;99.90;;;4.60;77.59;100252.53;4989632;28;20191;-80
2022/02/20 07:44:29;;;;;;;4.50;4.10;;;4.40;99.90;;;4.50;77.52;100265.38;4988255;28;20250;-83
2022/02/20 07:46:58;;;;;;;5.18;4.68;;;4.40;99.90;;;4.41;77.91;100265.56;4992912;28;20219;-80
2022/02/20 07:49:27;;;;;;;5.18;4.72;;;4.30;99.90;;;4.47;77.44;100268.38;4989335;28;20222;-83
2022/02/20 07:51:55;;;;;;;4.63;4.22;;;4.30;99.90;;;4.51;76.94;100274.19;4985578;28;20207;-82
2022/02/20 07:54:26;;;;;;;6.32;3.67;;;4.40;99.90;;;4.39;76.98;100276.47;4982909;28;20259;-82
2022/02/20 07:56:55;;;;;;;5.35;4.30;;;4.40;99.90;;;4.39;77.73;100284.50;4982659;28;20219;-82
2022/02/20 07:59:25;;;;;;;6.43;4.85;;;4.30;99.90;;;4.46;77.91;100281.94;4984665;28;20227;-82
2022/02/20 08:01:54;;;;;;;5.43;4.88;;;4.30;99.90;;;4.42;77.65;100275.28;4985099;28;20265;-82
2022/02/20 08:04:23;;;;;;;4.38;3.70;;;4.30;99.90;;;4.48;77.34;100253.13;4984283;28;20254;-83
2022/02/20 08:06:52;;;;;;;7.22;4.55;;;4.30;99.90;;;4.66;77.08;100281.31;4981604;28;20214;-81
2022/02/20 08:09:20;;;;;;;5.07;4.57;;;4.50;99.90;;;4.71;76.71;100270.88;4996655;28;20339;-81
2022/02/20 08:11:51;;;;;;;6.40;5.18;;;4.50;99.90;;;4.86;76.41;100278.97;4988794;28;20251;-82
2022/02/20 08:14:19;;;;;;;5.53;5.03;;;4.60;99.90;;;4.92;76.62;100282.78;4997615;28;20665;-80
2022/02/20 08:16:48;;;;;;;6.78;4.80;;;4.70;99.90;;;5.04;75.68;100286.69;4995871;28;20223;-81
2022/02/20 08:19:16;;;;;;;5.45;4.97;;;4.80;99.90;;;5.05;75.72;100289.19;4995719;28;20243;-81
2022/02/20 08:21:45;;;;;;;6.15;5.55;;;4.90;99.90;;;5.04;75.07;100292.88;4995650;28;20184;-80
2022/02/20 08:24:14;;;;;;;4.82;3.85;;;4.90;99.90;;;4.98;75.00;100298.16;4997786;28;20215;-82
2022/02/20 08:26:42;;;;;;;5.75;4.90;;;4.80;99.90;;;4.97;75.18;100291.13;4996324;28;20432;-83
2022/02/20 08:29:12;;;;;;;4.82;4.00;;;4.90;99.90;;;4.96;75.61;100297.50;4993733;28;20195;-80
2022/02/20 08:31:42;;;;;;;5.07;4.40;;;4.80;99.90;;;5.07;74.39;100297.91;4992391;28;20211;-77
2022/02/20 08:34:10;;;;;;;5.13;4.32;;;4.90;99.90;;;5.11;74.31;100293.00;4978503;28;20207;-81
2022/02/20 08:36:39;;;;;;;6.32;4.55;;;4.90;99.90;;;5.14;74.13;100298.84;4977843;28;20242;-79
2022/02/20 08:39:07;;;;;;;4.65;4.00;;;5.00;99.90;;;5.06;73.77;100304.28;4978417;28;20211;-80
2022/02/20 08:41:36;;;;;;;5.43;4.40;;;5.00;99.90;;;5.15;73.95;100305.03;4978454;28;20684;-79
2022/02/20 08:44:06;;;;;;;4.80;4.30;;;5.00;99.90;;;5.15;73.73;100308.56;4976386;28;20187;-81
2022/02/20 08:46:39;;;;;;;5.47;4.97;;;5.00;99.90;;;5.17;73.49;100311.06;4984169;28;20242;-83
2022/02/20 08:49:09;;;;;;;5.30;4.13;;;5.00;99.90;;;5.08;73.28;100314.84;4986006;28;20242;-82
2022/02/20 08:51:38;;;;;;;5.88;5.28;;;5.00;99.90;;;5.02;73.10;100310.19;4982607;28;20203;-80
2022/02/20 08:54:07;;;;;;;5.53;4.93;;;5.00;99.90;;;5.10;73.11;100312.78;4983698;28;20655;-79
2022/02/20 08:56:36;;;;;;;5.40;4.90;;;5.00;99.90;;;5.21;73.24;100315.88;4984024;28;20179;-81
2022/02/20 08:59:05;;;;;;;5.60;4.85;;;5.10;99.90;;;5.36;72.49;100307.88;4981912;28;20203;-82
2022/02/20 09:01:35;;;;;;;5.15;4.68;;;5.20;99.90;;;5.43;71.91;100316.84;5000264;28;20294;-78
2022/02/20 09:04:05;;;;;;;4.78;4.38;;;5.30;99.90;;;5.58;71.58;100322.22;4992671;28;20195;-79
2022/02/20 09:06:35;;;;;;;5.45;4.03;;;5.40;99.90;;;5.82;70.99;100313.06;4990076;28;20254;-80
2022/02/20 09:09:05;;;;;;;5.97;5.38;;;5.50;99.90;;;6.03;70.76;100323.94;4988333;28;20218;-81
2022/02/20 09:11:34;;;;;;;5.05;4.28;;;5.70;99.90;;;6.10;70.24;100311.41;4986926;28;20198;-80
2022/02/20 09:14:04;;;;;;;5.05;4.53;;;5.90;99.90;;;6.13;69.60;100315.59;4985312;28;20306;-79
2022/02/20 09:16:33;;;;;;;4.60;4.20;;;6.00;99.90;;;6.14;69.40;100323.47;4986117;28;20286;-80
2022/02/20 09:19:06;;;;;;;6.38;5.63;;;5.90;99.90;;;6.09;68.42;100325.88;4982817;28;20637;-79
2022/02/20 09:21:35;;;;;;;5.78;4.38;;;5.90;99.90;;;6.18;69.16;100308.63;4985591;28;20215;-81
2022/02/20 09:24:04;;;;;;;5.03;4.53;;;6.00;99.90;;;6.10;68.56;100312.25;4989934;28;20195;-80
2022/02/20 09:26:33;;;;;;;5.22;4.72;;;6.00;99.90;;;6.00;68.69;100305.50;4988874;28;20215;-79
2022/02/20 09:29:02;;;;;;;6.95;5.55;;;5.90;99.90;;;5.99;68.02;100322.63;4989277;28;20230;-80
2022/02/20 09:31:31;;;;;;;4.75;4.28;;;5.90;99.90;;;6.09;68.11;100318.66;4985580;28;20535;-81
2022/02/20 09:34:01;;;;;;;6.28;4.82;;;5.90;99.90;;;6.08;67.93;100302.72;4978285;28;20202;-80
2022/02/20 09:36:32;;;;;;;7.10;4.75;;;5.90;99.90;;;6.21;68.03;100302.88;4981281;28;20303;-81
2022/02/20 09:39:01;;;;;;;5.78;4.60;;;6.00;99.90;;;5.99;66.97;100306.53;4977805;28;20234;-80
2022/02/20 09:41:32;;;;;;;5.38;4.57;;;6.00;99.30;;;5.91;68.11;100311.97;4980453;28;20191;-79
2022/02/20 09:44:03;;;;;;;6.75;5.40;;;5.80;99.90;;;5.80;68.90;100299.00;4978785;28;20263;-80
2022/02/20 09:46:33;;;;;;;4.65;3.85;;;5.70;99.90;;;5.86;68.34;100299.06;4963656;29;20223;-79
2022/02/20 09:49:03;;;;;;;4.95;4.28;;;5.80;99.90;;;5.79;68.72;100292.81;4976353;28;20235;-78
2022/02/20 09:51:33;;;;;;;8.27;6.22;;;5.80;99.90;;;5.83;68.95;100304.00;4956889;28;20192;-77
2022/02/20 09:54:02;;;;;;;5.68;5.10;;;5.70;99.90;;;5.94;69.06;100306.25;4960690;28;20183;-78
2022/02/20 09:56:31;;;;;;;5.25;4.72;;;5.70;99.90;;;6.02;68.82;100304.28;4972121;28;20216;-80
2022/02/20 09:59:00;;;;;;;7.05;6.03;;;5.80;99.90;;;6.08;68.08;100294.66;4957525;28;20219;-79
2022/02/20 10:02:08;;;;;;;6.13;5.53;;;5.90;99.90;;;6.08;68.82;100291.97;4959626;28;20350;-79
2022/02/20 10:04:53;;;;;;;7.35;6.40;;;5.90;99.90;;;5.99;68.78;100293.94;4959184;29;20581;-78
2022/02/20 10:07:30;;;;;;;6.20;5.60;;;5.90;99.90;;;6.16;69.20;100302.59;4976671;28;20259;-78
2022/02/20 10:10:04;;;;;;;7.50;6.60;;;6.00;99.90;;;6.23;69.16;100298.16;4957941;28;20207;-79
2022/02/20 10:12:34;;;;;;;9.05;6.50;;;6.00;99.90;;;6.22;68.13;100296.47;4971369;28;20222;-79
2022/02/20 10:15:03;;;;;;;6.90;6.10;;;6.10;99.90;;;6.10;68.78;100295.28;4972158;28;20223;-80
2022/02/20 10:17:32;;;;;;;8.50;6.60;;;6.00;99.90;;;5.96;68.82;100288.09;4974135;28;20446;-78
2022/02/20 10:20:24;;;;;;;6.95;6.35;;;5.90;99.90;;;5.94;69.36;100285.59;4964427;28;20223;-80
2022/02/20 10:23:16;;;;;;;7.78;6.55;;;5.80;99.90;;;5.93;69.62;100283.09;4959947;29;20215;-77
2022/02/20 10:26:13;;;;;;;6.97;6.28;;;5.80;99.90;;;6.06;69.98;100285.94;4934263;28;20208;-78
2022/02/20 10:29:08;;;;;;;7.32;6.50;;;5.90;99.90;;;6.08;68.99;100278.53;4953401;28;20227;-78
2022/02/20 10:31:46;;;;;;;6.28;5.68;;;5.90;99.90;;;6.32;69.17;100270.16;4973115;28;20613;-81
2022/02/20 10:34:18;;;;;;;8.02;6.70;;;6.10;99.90;;;6.38;68.64;100276.63;4973879;28;20200;-79
2022/02/20 10:36:52;;;;;;;8.20;6.68;;;6.20;99.90;;;6.55;68.65;100272.66;4969624;28;20212;-79
2022/02/20 10:39:27;;;;;;;8.80;6.47;;;6.30;99.90;;;6.62;68.43;100267.34;4972890;28;20235;-79
2022/02/20 10:41:58;;;;;;;8.20;7.35;;;6.40;99.90;;;6.63;68.32;100258.28;4975765;28;20202;-78
2022/02/20 10:44:27;;;;;;;8.43;6.90;;;6.40;99.90;;;6.71;68.75;100255.44;4976571;28;20192;-79
2022/02/20 10:47:15;;;;;;;7.53;6.78;;;6.50;99.90;;;6.71;68.24;100242.00;4975696;28;20605;-78
2022/02/20 10:49:44;;;;;;;7.95;6.63;;;6.60;99.90;;;6.58;68.52;100239.19;4975282;28;20223;-79
2022/02/20 10:52:24;;;;;;;8.57;6.70;;;6.50;99.90;;;6.55;69.01;100227.78;4975868;28;20199;-80